sensor_id;sensor_type;location;lat;lon;timestamp;pressure;altitude;pressure_sealevel;temperature;humidity
46223;BME280;31943;51.410;7.564;2024-02-23T00:01:11;97504.38;;;7.40;59.09
46223;BME280;31943;51.410;7.564;2024-02-23T00:03:36;97534.69;;;7.38;59.46
46223;BME280;31943;51.410;7.564;2024-02-23T00:06:04;97525.13;;;7.40;59.19
46223;BME280;31943;51.410;7.564;2024-02-23T00:08:29;97552.00;;;7.37;59.55
46223;BME280;31943;51.410;7.564;2024-02-23T00:10:55;97570.31;;;7.29;59.42
46223;BME280;31943;51.410;7.564;2024-02-23T00:13:20;97583.41;;;7.23;60.24
46223;BME280;31943;51.410;7.564;2024-02-23T00:15:47;97578.31;;;7.19;60.45
46223;BME280;31943;51.410;7.564;2024-02-23T00:18:14;97580.81;;;7.23;60.10
46223;BME280;31943;51.410;7.564;2024-02-23T00:20:40;97592.16;;;7.18;60.45
46223;BME280;31943;51.410;7.564;2024-02-23T00:23:05;97606.84;;;7.17;60.13
46223;BME280;31943;51.410;7.564;2024-02-23T00:25:31;97607.72;;;7.18;60.21
46223;BME280;31943;51.410;7.564;2024-02-23T00:27:57;97619.00;;;7.15;60.13
46223;BME280;31943;51.410;7.564;2024-02-23T00:30:23;97624.28;;;7.09;59.99
46223;BME280;31943;51.410;7.564;2024-02-23T00:32:50;97625.22;;;7.05;59.91
46223;BME280;31943;51.410;7.564;2024-02-23T00:35:16;97636.53;;;7.01;60.31
46223;BME280;31943;51.410;7.564;2024-02-23T00:37:42;97640.09;;;6.95;60.44
46223;BME280;31943;51.410;7.564;2024-02-23T00:40:08;97639.34;;;6.90;60.95
46223;BME280;31943;51.410;7.564;2024-02-23T00:42:37;97652.22;;;6.95;61.39
46223;BME280;31943;51.410;7.564;2024-02-23T00:45:03;97655.69;;;6.93;62.15
46223;BME280;31943;51.410;7.564;2024-02-23T00:47:29;97662.59;;;6.95;62.19
46223;BME280;31943;51.410;7.564;2024-02-23T00:49:56;97673.06;;;6.88;62.36
46223;BME280;31943;51.410;7.564;2024-02-23T00:52:22;97675.66;;;6.88;61.91
46223;BME280;31943;51.410;7.564;2024-02-23T00:54:48;97698.06;;;6.91;62.17
46223;BME280;31943;51.410;7.564;2024-02-23T00:57:14;97689.44;;;6.92;61.81
46223;BME280;31943;51.410;7.564;2024-02-23T00:59:39;97686.88;;;6.87;61.90
46223;BME280;31943;51.410;7.564;2024-02-23T01:02:05;97700.69;;;6.89;61.96
46223;BME280;31943;51.410;7.564;2024-02-23T01:04:31;97704.09;;;6.91;61.56
46223;BME280;31943;51.410;7.564;2024-02-23T01:06:58;97705.84;;;6.91;61.04
46223;BME280;31943;51.410;7.564;2024-02-23T01:09:23;97723.06;;;6.93;61.30
46223;BME280;31943;51.410;7.564;2024-02-23T01:11:49;97717.75;;;7.03;61.69
46223;BME280;31943;51.410;7.564;2024-02-23T01:14:14;97725.56;;;7.01;61.18
46223;BME280;31943;51.410;7.564;2024-02-23T01:16:40;97736.88;;;6.96;60.87
46223;BME280;31943;51.410;7.564;2024-02-23T01:21:41;97753.41;;;6.90;60.32
46223;BME280;31943;51.410;7.564;2024-02-23T01:24:08;97748.44;;;6.75;59.78
46223;BME280;31943;51.410;7.564;2024-02-23T01:26:34;97748.50;;;6.70;60.47
46223;BME280;31943;51.410;7.564;2024-02-23T01:29:00;97733.78;;;6.72;60.33
46223;BME280;31943;51.410;7.564;2024-02-23T01:41:49;97753.00;;;6.59;61.08
46223;BME280;31943;51.410;7.564;2024-02-23T01:44:15;97750.38;;;6.60;61.34
46223;BME280;31943;51.410;7.564;2024-02-23T01:46:41;97759.84;;;6.63;61.62
46223;BME280;31943;51.410;7.564;2024-02-23T01:49:07;97756.28;;;6.70;61.32
46223;BME280;31943;51.410;7.564;2024-02-23T01:51:34;97763.28;;;6.65;61.22
46223;BME280;31943;51.410;7.564;2024-02-23T01:54:00;97768.41;;;6.68;61.57
46223;BME280;31943;51.410;7.564;2024-02-23T01:56:26;97774.41;;;6.71;61.45
46223;BME280;31943;51.410;7.564;2024-02-23T01:58:54;97772.69;;;6.70;61.34
46223;BME280;31943;51.410;7.564;2024-02-23T02:01:20;97774.38;;;6.73;61.31
46223;BME280;31943;51.410;7.564;2024-02-23T02:03:46;97769.31;;;6.65;61.42
46223;BME280;31943;51.410;7.564;2024-02-23T02:06:13;97783.09;;;6.67;61.68
46223;BME280;31943;51.410;7.564;2024-02-23T02:08:38;97778.75;;;6.68;61.48
46223;BME280;31943;51.410;7.564;2024-02-23T02:11:04;97779.66;;;6.67;61.10
46223;BME280;31943;51.410;7.564;2024-02-23T02:13:29;97781.34;;;6.69;61.29
46223;BME280;31943;51.410;7.564;2024-02-23T02:15:57;97789.13;;;6.66;61.11
46223;BME280;31943;51.410;7.564;2024-02-23T02:18:23;97789.13;;;6.68;61.17
46223;BME280;31943;51.410;7.564;2024-02-23T02:20:51;97789.13;;;6.66;61.27
46223;BME280;31943;51.410;7.564;2024-02-23T02:23:17;97790.91;;;6.64;61.30
46223;BME280;31943;51.410;7.564;2024-02-23T02:25:42;97792.69;;;6.61;61.31
46223;BME280;31943;51.410;7.564;2024-02-23T02:28:08;97786.63;;;6.62;61.09
46223;BME280;31943;51.410;7.564;2024-02-23T02:30:33;97807.41;;;6.59;61.06
46223;BME280;31943;51.410;7.564;2024-02-23T02:33:00;97790.06;;;6.62;60.68
46223;BME280;31943;51.410;7.564;2024-02-23T02:35:26;97795.19;;;6.68;61.15
46223;BME280;31943;51.410;7.564;2024-02-23T02:37:51;97790.03;;;6.67;60.69
46223;BME280;31943;51.410;7.564;2024-02-23T02:40:17;97794.28;;;6.71;60.76
46223;BME280;31943;51.410;7.564;2024-02-23T02:42:42;97801.16;;;6.72;60.83
46223;BME280;31943;51.410;7.564;2024-02-23T02:45:08;97800.25;;;6.76;60.44
46223;BME280;31943;51.410;7.564;2024-02-23T02:47:34;97810.59;;;6.76;60.56
46223;BME280;31943;51.410;7.564;2024-02-23T02:50:04;97821.81;;;6.78;60.58
46223;BME280;31943;51.410;7.564;2024-02-23T02:52:30;97826.94;;;6.84;60.42
46223;BME280;31943;51.410;7.564;2024-02-23T02:54:55;97839.94;;;6.80;60.18
46223;BME280;31943;51.410;7.564;2024-02-23T02:57:21;97834.00;;;6.71;59.77
46223;BME280;31943;51.410;7.564;2024-02-23T02:59:46;97834.00;;;6.73;60.01
46223;BME280;31943;51.410;7.564;2024-02-23T03:02:12;97849.56;;;6.71;60.08
46223;BME280;31943;51.410;7.564;2024-02-23T03:04:46;97839.13;;;6.76;60.37
46223;BME280;31943;51.410;7.564;2024-02-23T03:07:13;97843.44;;;6.79;60.30
46223;BME280;31943;51.410;7.564;2024-02-23T03:09:39;97856.38;;;6.80;60.56
46223;BME280;31943;51.410;7.564;2024-02-23T03:12:05;97856.38;;;6.80;60.89
46223;BME280;31943;51.410;7.564;2024-02-23T03:14:30;97866.78;;;6.76;60.85
46223;BME280;31943;51.410;7.564;2024-02-23T03:16:57;97872.81;;;6.76;60.37
46223;BME280;31943;51.410;7.564;2024-02-23T03:19:22;97874.56;;;6.76;60.30
46223;BME280;31943;51.410;7.564;2024-02-23T03:21:48;97864.16;;;6.79;60.54
46223;BME280;31943;51.410;7.564;2024-02-23T03:24:15;97866.84;;;6.72;59.99
46223;BME280;31943;51.410;7.564;2024-02-23T03:26:45;97891.94;;;6.66;60.16
46223;BME280;31943;51.410;7.564;2024-02-23T03:29:10;97873.00;;;6.62;60.35
46223;BME280;31943;51.410;7.564;2024-02-23T03:31:37;97876.47;;;6.60;60.89
46223;BME280;31943;51.410;7.564;2024-02-23T03:34:03;97876.47;;;6.63;60.58
46223;BME280;31943;51.410;7.564;2024-02-23T03:39:22;97875.66;;;6.54;60.85
46223;BME280;31943;51.410;7.564;2024-02-23T03:41:48;97874.72;;;6.62;61.20
46223;BME280;31943;51.410;7.564;2024-02-23T03:44:13;97882.47;;;6.65;61.14
46223;BME280;31943;51.410;7.564;2024-02-23T03:46:39;97879.91;;;6.63;60.83
46223;BME280;31943;51.410;7.564;2024-02-23T03:49:08;97889.34;;;6.67;61.02
46223;BME280;31943;51.410;7.564;2024-02-23T03:51:33;97878.13;;;6.68;60.67
46223;BME280;31943;51.410;7.564;2024-02-23T03:54:02;97887.53;;;6.74;61.22
46223;BME280;31943;51.410;7.564;2024-02-23T03:56:29;97896.19;;;6.73;60.88
46223;BME280;31943;51.410;7.564;2024-02-23T03:58:55;97898.78;;;6.73;60.44
46223;BME280;31943;51.410;7.564;2024-02-23T04:01:20;97898.84;;;6.68;60.32
46223;BME280;31943;51.410;7.564;2024-02-23T04:03:46;97902.22;;;6.73;60.34
46223;BME280;31943;51.410;7.564;2024-02-23T04:06:11;97904.84;;;6.72;60.33
46223;BME280;31943;51.410;7.564;2024-02-23T04:08:37;97910.09;;;6.67;60.37
46223;BME280;31943;51.410;7.564;2024-02-23T04:11:03;97910.84;;;6.76;60.80
46223;BME280;31943;51.410;7.564;2024-02-23T04:13:30;97913.41;;;6.79;60.48
46223;BME280;31943;51.410;7.564;2024-02-23T04:15:55;97902.19;;;6.77;60.25
46223;BME280;31943;51.410;7.564;2024-02-23T04:18:21;97918.59;;;6.77;60.40
46223;BME280;31943;51.410;7.564;2024-02-23T04:20:46;97918.59;;;6.77;60.14
46223;BME280;31943;51.410;7.564;2024-02-23T04:23:12;97918.59;;;6.77;60.75
46223;BME280;31943;51.410;7.564;2024-02-23T04:25:37;97921.13;;;6.83;60.62
46223;BME280;31943;51.410;7.564;2024-02-23T04:28:03;97924.63;;;6.81;59.99
46223;BME280;31943;51.410;7.564;2024-02-23T04:30:30;97929.72;;;6.85;59.84
46223;BME280;31943;51.410;7.564;2024-02-23T04:32:56;97928.88;;;6.86;59.60
46223;BME280;31943;51.410;7.564;2024-02-23T04:35:21;97922.91;;;6.78;59.46
46223;BME280;31943;51.410;7.564;2024-02-23T04:37:47;97924.63;;;6.81;59.82
46223;BME280;31943;51.410;7.564;2024-02-23T04:40:12;97929.78;;;6.82;59.69
46223;BME280;31943;51.410;7.564;2024-02-23T04:42:38;97923.78;;;6.80;58.89
46223;BME280;31943;51.410;7.564;2024-02-23T04:45:05;97931.56;;;6.76;59.40
46223;BME280;31943;51.410;7.564;2024-02-23T04:47:32;97935.13;;;6.68;59.24
46223;BME280;31943;51.410;7.564;2024-02-23T04:49:57;97925.66;;;6.64;59.51
46223;BME280;31943;51.410;7.564;2024-02-23T04:52:23;97930.91;;;6.60;58.79
46223;BME280;31943;51.410;7.564;2024-02-23T04:54:48;97937.75;;;6.64;59.27
46223;BME280;31943;51.410;7.564;2024-02-23T04:57:14;97930.81;;;6.66;59.05
46223;BME280;31943;51.410;7.564;2024-02-23T04:59:39;97935.97;;;6.70;59.60
46223;BME280;31943;51.410;7.564;2024-02-23T05:02:05;97937.69;;;6.70;59.34
46223;BME280;31943;51.410;7.564;2024-02-23T05:04:32;97933.38;;;6.70;59.26
46223;BME280;31943;51.410;7.564;2024-02-23T05:06:58;97926.50;;;6.66;59.52
46223;BME280;31943;51.410;7.564;2024-02-23T05:09:24;97927.41;;;6.64;59.29
46223;BME280;31943;51.410;7.564;2024-02-23T05:11:51;97929.19;;;6.59;59.16
46223;BME280;31943;51.410;7.564;2024-02-23T05:14:17;97930.97;;;6.53;59.04
46223;BME280;31943;51.410;7.564;2024-02-23T05:16:44;97931.81;;;6.57;59.42
46223;BME280;31943;51.410;7.564;2024-02-23T05:19:09;97930.97;;;6.53;59.19
46223;BME280;31943;51.410;7.564;2024-02-23T05:21:37;97929.28;;;6.51;59.32
46223;BME280;31943;51.410;7.564;2024-02-23T05:24:03;97937.09;;;6.45;59.70
46223;BME280;31943;51.410;7.564;2024-02-23T05:26:29;97922.38;;;6.50;59.72
46223;BME280;31943;51.410;7.564;2024-02-23T05:28:54;97924.97;;;6.50;59.45
46223;BME280;31943;51.410;7.564;2024-02-23T05:31:44;97930.16;;;6.48;59.11
46223;BME280;31943;51.410;7.564;2024-02-23T05:34:12;97923.28;;;6.47;59.71
46223;BME280;31943;51.410;7.564;2024-02-23T05:36:39;97930.16;;;6.48;59.86
46223;BME280;31943;51.410;7.564;2024-02-23T05:39:05;97925.88;;;6.44;59.77
46223;BME280;31943;51.410;7.564;2024-02-23T05:41:32;97928.44;;;6.47;59.56
46223;BME280;31943;51.410;7.564;2024-02-23T05:43:57;97920.63;;;6.52;59.82
46223;BME280;31943;51.410;7.564;2024-02-23T05:46:23;97925.78;;;6.57;59.65
46223;BME280;31943;51.410;7.564;2024-02-23T05:48:48;97924.88;;;6.59;59.41
46223;BME280;31943;51.410;7.564;2024-02-23T05:51:18;97922.31;;;6.54;59.23
46223;BME280;31943;51.410;7.564;2024-02-23T05:53:46;97918.88;;;6.52;59.22
46223;BME280;31943;51.410;7.564;2024-02-23T05:56:11;97922.38;;;6.50;59.32
46223;BME280;31943;51.410;7.564;2024-02-23T05:58:37;97925.88;;;6.47;59.09
46223;BME280;31943;51.410;7.564;2024-02-23T06:01:03;97912.97;;;6.41;58.80
46223;BME280;31943;51.410;7.564;2024-02-23T06:03:28;97917.25;;;6.47;59.41
46223;BME280;31943;51.410;7.564;2024-02-23T06:05:54;97912.94;;;6.44;59.18
46223;BME280;31943;51.410;7.564;2024-02-23T06:08:19;97918.09;;;6.46;59.15
46223;BME280;31943;51.410;7.564;2024-02-23T06:10:46;97918.13;;;6.43;59.42
46223;BME280;31943;51.410;7.564;2024-02-23T06:13:11;97916.34;;;6.49;59.24
46223;BME280;31943;51.410;7.564;2024-02-23T06:15:37;97916.34;;;6.48;59.28
46223;BME280;31943;51.410;7.564;2024-02-23T06:18:06;97917.25;;;6.45;59.04
46223;BME280;31943;51.410;7.564;2024-02-23T06:20:31;97915.53;;;6.43;59.15
46223;BME280;31943;51.410;7.564;2024-02-23T06:22:57;97916.34;;;6.46;59.71
46223;BME280;31943;51.410;7.564;2024-02-23T06:25:23;97919.00;;;6.43;59.53
46223;BME280;31943;51.410;7.564;2024-02-23T06:27:50;97930.22;;;6.41;59.79
46223;BME280;31943;51.410;7.564;2024-02-23T06:30:16;97929.38;;;6.40;59.43
46223;BME280;31943;51.410;7.564;2024-02-23T06:32:41;97929.44;;;6.37;59.27
46223;BME280;31943;51.410;7.564;2024-02-23T06:35:07;97931.97;;;6.43;59.06
46223;BME280;31943;51.410;7.564;2024-02-23T06:37:33;97920.78;;;6.38;59.13
46223;BME280;31943;51.410;7.564;2024-02-23T06:39:58;97916.47;;;6.37;58.99
46223;BME280;31943;51.410;7.564;2024-02-23T06:42:25;97927.69;;;6.36;59.47
46223;BME280;31943;51.410;7.564;2024-02-23T06:44:52;97925.09;;;6.38;59.25
46223;BME280;31943;51.410;7.564;2024-02-23T06:47:17;97925.91;;;6.43;59.75
46223;BME280;31943;51.410;7.564;2024-02-23T06:49:43;97936.19;;;6.50;59.81
46223;BME280;31943;51.410;7.564;2024-02-23T06:52:09;97931.91;;;6.46;59.28
46223;BME280;31943;51.410;7.564;2024-02-23T06:54:34;97942.25;;;6.49;59.71
46223;BME280;31943;51.410;7.564;2024-02-23T06:57:00;97950.88;;;6.51;59.37
46223;BME280;31943;51.410;7.564;2024-02-23T06:59:26;97948.34;;;6.45;59.26
46223;BME280;31943;51.410;7.564;2024-02-23T07:01:53;97950.03;;;6.49;59.63
46223;BME280;31943;51.410;7.564;2024-02-23T07:04:18;97949.97;;;6.52;60.01
46223;BME280;31943;51.410;7.564;2024-02-23T07:06:44;97948.19;;;6.59;59.92
46223;BME280;31943;51.410;7.564;2024-02-23T07:09:10;97942.91;;;6.67;59.39
46223;BME280;31943;51.410;7.564;2024-02-23T07:11:35;97941.19;;;6.67;59.75
46223;BME280;31943;51.410;7.564;2024-02-23T07:14:01;97949.03;;;6.63;59.32
46223;BME280;31943;51.410;7.564;2024-02-23T07:16:26;97950.72;;;6.62;59.69
46223;BME280;31943;51.410;7.564;2024-02-23T07:18:54;97951.56;;;6.67;59.28
46223;BME280;31943;51.410;7.564;2024-02-23T07:21:20;97948.09;;;6.67;59.16
46223;BME280;31943;51.410;7.564;2024-02-23T07:23:45;97957.56;;;6.71;59.44
46223;BME280;31943;51.410;7.564;2024-02-23T07:26:11;97953.28;;;6.67;59.28
46223;BME280;31943;51.410;7.564;2024-02-23T07:28:37;97946.44;;;6.63;59.50
46223;BME280;31943;51.410;7.564;2024-02-23T07:31:02;97951.69;;;6.53;59.41
46223;BME280;31943;51.410;7.564;2024-02-23T07:33:30;97943.09;;;6.53;59.25
46223;BME280;31943;51.410;7.564;2024-02-23T07:35:57;97949.06;;;6.58;59.39
46223;BME280;31943;51.410;7.564;2024-02-23T07:38:23;97943.00;;;6.61;59.62
46223;BME280;31943;51.410;7.564;2024-02-23T07:40:49;97938.66;;;6.63;59.46
46223;BME280;31943;51.410;7.564;2024-02-23T07:43:15;97944.69;;;6.62;59.58
46223;BME280;31943;51.410;7.564;2024-02-23T07:45:43;97940.31;;;6.68;59.47
46223;BME280;31943;51.410;7.564;2024-02-23T07:48:10;97941.25;;;6.60;59.57
46223;BME280;31943;51.410;7.564;2024-02-23T07:50:35;97946.44;;;6.61;59.55
46223;BME280;31943;51.410;7.564;2024-02-23T07:53:03;97942.84;;;6.71;59.60
46223;BME280;31943;51.410;7.564;2024-02-23T07:55:28;97955.72;;;6.79;59.61
46223;BME280;31943;51.410;7.564;2024-02-23T07:57:54;97954.06;;;6.75;58.80
46223;BME280;31943;51.410;7.564;2024-02-23T08:00:20;97961.81;;;6.77;59.30
46223;BME280;31943;51.410;7.564;2024-02-23T08:02:45;97947.97;;;6.78;59.47
46223;BME280;31943;51.410;7.564;2024-02-23T08:05:11;97944.53;;;6.76;59.47
46223;BME280;31943;51.410;7.564;2024-02-23T08:07:37;97939.38;;;6.74;59.24
46223;BME280;31943;51.410;7.564;2024-02-23T08:10:05;97944.53;;;6.77;59.16
46223;BME280;31943;51.410;7.564;2024-02-23T08:12:30;97935.75;;;6.86;58.91
46223;BME280;31943;51.410;7.564;2024-02-23T08:14:56;97945.22;;;6.91;59.01
46223;BME280;31943;51.410;7.564;2024-02-23T08:17:21;97943.50;;;6.90;58.73
46223;BME280;31943;51.410;7.564;2024-02-23T08:19:47;97948.72;;;6.89;58.95
46223;BME280;31943;51.410;7.564;2024-02-23T08:22:13;97946.94;;;6.91;58.49
46223;BME280;31943;51.410;7.564;2024-02-23T08:24:38;97942.69;;;6.85;59.05
46223;BME280;31943;51.410;7.564;2024-02-23T08:27:05;97956.56;;;6.83;59.07
46223;BME280;31943;51.410;7.564;2024-02-23T08:29:31;97959.13;;;6.84;58.73
46223;BME280;31943;51.410;7.564;2024-02-23T08:31:57;97964.34;;;6.81;58.62
46223;BME280;31943;51.410;7.564;2024-02-23T08:34:22;97963.44;;;6.87;58.46
46223;BME280;31943;51.410;7.564;2024-02-23T08:36:48;97964.25;;;6.89;58.77
46223;BME280;31943;51.410;7.564;2024-02-23T08:39:14;97965.91;;;6.96;58.44
46223;BME280;31943;51.410;7.564;2024-02-23T08:41:39;97954.56;;;7.05;58.47
46223;BME280;31943;51.410;7.564;2024-02-23T08:44:06;97958.81;;;7.10;58.30
46223;BME280;31943;51.410;7.564;2024-02-23T08:46:32;97964.75;;;7.19;58.25
46223;BME280;31943;51.410;7.564;2024-02-23T08:48:58;97967.44;;;7.12;58.06
46223;BME280;31943;51.410;7.564;2024-02-23T08:51:25;97968.34;;;7.07;57.92
46223;BME280;31943;51.410;7.564;2024-02-23T08:53:51;97972.69;;;7.08;58.33
46223;BME280;31943;51.410;7.564;2024-02-23T08:56:17;97964.75;;;7.19;58.12
46223;BME280;31943;51.410;7.564;2024-02-23T08:58:42;97977.63;;;7.25;58.07
46223;BME280;31943;51.410;7.564;2024-02-23T09:01:11;97979.28;;;7.33;57.45
46223;BME280;31943;51.410;7.564;2024-02-23T09:03:37;97975.66;;;7.44;57.62
46223;BME280;31943;51.410;7.564;2024-02-23T09:06:06;97975.56;;;7.51;57.30
46223;BME280;31943;51.410;7.564;2024-02-23T09:13:33;97992.69;;;7.63;56.98
46223;BME280;31943;51.410;7.564;2024-02-23T09:15:58;97986.56;;;7.69;56.91
46223;BME280;31943;51.410;7.564;2024-02-23T09:18:26;97983.13;;;7.65;56.12
46223;BME280;31943;51.410;7.564;2024-02-23T09:20:51;97989.13;;;7.70;56.74
46223;BME280;31943;51.410;7.564;2024-02-23T09:23:17;97970.97;;;7.69;56.04
46223;BME280;31943;51.410;7.564;2024-02-23T09:25:43;97977.72;;;7.81;56.54
46223;BME280;31943;51.410;7.564;2024-02-23T09:28:09;97984.59;;;7.83;56.30
46223;BME280;31943;51.410;7.564;2024-02-23T09:30:35;97994.84;;;7.92;56.35
46223;BME280;31943;51.410;7.564;2024-02-23T09:33:00;97982.69;;;7.96;55.88
46223;BME280;31943;51.410;7.564;2024-02-23T09:35:27;97999.81;;;8.08;55.54
46223;BME280;31943;51.410;7.564;2024-02-23T09:37:53;97991.13;;;8.07;55.97
46223;BME280;31943;51.410;7.564;2024-02-23T09:40:20;97983.41;;;8.04;54.86
46223;BME280;31943;51.410;7.564;2024-02-23T09:42:53;97987.72;;;8.05;55.51
46223;BME280;31943;51.410;7.564;2024-02-23T09:45:20;97990.06;;;8.19;55.52
46223;BME280;31943;51.410;7.564;2024-02-23T09:47:47;97998.25;;;8.50;55.36
46223;BME280;31943;51.410;7.564;2024-02-23T09:50:14;97992.72;;;8.69;55.00
46223;BME280;31943;51.410;7.564;2024-02-23T09:52:42;97981.91;;;8.90;54.26
46223;BME280;31943;51.410;7.564;2024-02-23T09:55:07;97986.34;;;8.84;53.50
46223;BME280;31943;51.410;7.564;2024-02-23T09:57:34;97993.47;;;8.74;54.26
46223;BME280;31943;51.410;7.564;2024-02-23T09:59:59;97990.88;;;8.74;54.59
46223;BME280;31943;51.410;7.564;2024-02-23T10:02:26;97998.47;;;8.86;54.68
46223;BME280;31943;51.410;7.564;2024-02-23T10:04:53;98004.47;;;8.90;54.46
46223;BME280;31943;51.410;7.564;2024-02-23T10:07:20;97999.94;;;9.00;54.56
46223;BME280;31943;51.410;7.564;2024-02-23T10:09:47;98006.00;;;9.00;54.51
46223;BME280;31943;51.410;7.564;2024-02-23T10:12:13;98009.59;;;8.93;55.16
46223;BME280;31943;51.410;7.564;2024-02-23T10:14:41;98016.47;;;8.96;54.92
46223;BME280;31943;51.410;7.564;2024-02-23T10:17:06;98012.44;;;9.24;54.64
46223;BME280;31943;51.410;7.564;2024-02-23T10:19:33;98006.16;;;9.35;54.63
46223;BME280;31943;51.410;7.564;2024-02-23T10:21:59;98000.09;;;9.34;54.60
46223;BME280;31943;51.410;7.564;2024-02-23T10:24:24;98002.41;;;9.48;54.36
46223;BME280;31943;51.410;7.564;2024-02-23T10:26:52;98008.56;;;9.44;54.00
46223;BME280;31943;51.410;7.564;2024-02-23T10:29:18;98016.25;;;9.50;54.30
46223;BME280;31943;51.410;7.564;2024-02-23T10:31:46;98004.78;;;9.59;53.73
46223;BME280;31943;51.410;7.564;2024-02-23T10:34:12;98015.91;;;9.65;53.90
46223;BME280;31943;51.410;7.564;2024-02-23T10:36:41;98005.13;;;9.43;53.56
46223;BME280;31943;51.410;7.564;2024-02-23T10:39:07;98010.78;;;9.22;54.11
46223;BME280;31943;51.410;7.564;2024-02-23T10:41:35;98007.22;;;9.26;54.22
46223;BME280;31943;51.410;7.564;2024-02-23T10:44:03;98016.63;;;9.33;54.67
46223;BME280;31943;51.410;7.564;2024-02-23T10:46:30;98015.13;;;9.21;54.23
46223;BME280;31943;51.410;7.564;2024-02-23T10:48:58;98011.84;;;9.12;53.81
46223;BME280;31943;51.410;7.564;2024-02-23T10:51:24;98014.56;;;9.05;53.90
46223;BME280;31943;51.410;7.564;2024-02-23T10:53:50;98016.38;;;9.02;54.24
46223;BME280;31943;51.410;7.564;2024-02-23T10:56:17;97997.16;;;9.07;53.88
46223;BME280;31943;51.410;7.564;2024-02-23T10:58:43;98001.38;;;9.13;54.24
46223;BME280;31943;51.410;7.564;2024-02-23T11:01:11;98005.31;;;9.34;54.26
46223;BME280;31943;51.410;7.564;2024-02-23T11:03:38;98001.44;;;9.52;53.55
46223;BME280;31943;51.410;7.564;2024-02-23T11:06:07;97995.91;;;9.67;53.48
46223;BME280;31943;51.410;7.564;2024-02-23T11:08:33;97993.47;;;9.60;53.14
46223;BME280;31943;51.410;7.564;2024-02-23T11:11:07;98000.91;;;9.77;53.35
46223;BME280;31943;51.410;7.564;2024-02-23T11:13:34;97996.25;;;9.89;53.15
46223;BME280;31943;51.410;7.564;2024-02-23T11:16:04;97995.28;;;9.94;53.05
46223;BME280;31943;51.410;7.564;2024-02-23T11:18:32;98009.19;;;9.94;53.25
46223;BME280;31943;51.410;7.564;2024-02-23T11:21:00;98010.06;;;9.95;52.26
46223;BME280;31943;51.410;7.564;2024-02-23T11:23:25;98000.13;;;9.73;53.03
46223;BME280;31943;51.410;7.564;2024-02-23T11:26:15;98002.94;;;9.62;53.64
46223;BME280;31943;51.410;7.564;2024-02-23T11:28:46;98006.50;;;9.58;53.75
46223;BME280;31943;51.410;7.564;2024-02-23T11:31:12;97992.78;;;9.52;53.50
46223;BME280;31943;51.410;7.564;2024-02-23T11:33:39;98002.34;;;9.51;54.08
46223;BME280;31943;51.410;7.564;2024-02-23T11:36:05;98012.09;;;9.43;54.04
46223;BME280;31943;51.410;7.564;2024-02-23T11:38:32;98006.09;;;9.38;53.93
46223;BME280;31943;51.410;7.564;2024-02-23T11:40:58;98003.72;;;9.27;53.91
46223;BME280;31943;51.410;7.564;2024-02-23T11:43:25;98015.53;;;9.43;53.85
46223;BME280;31943;51.410;7.564;2024-02-23T11:45:51;98000.91;;;9.77;53.56
46223;BME280;31943;51.410;7.564;2024-02-23T11:48:17;98000.25;;;9.68;53.34
46223;BME280;31943;51.410;7.564;2024-02-23T11:50:44;97997.88;;;9.56;53.78
46223;BME280;31943;51.410;7.564;2024-02-23T11:53:09;97987.88;;;9.77;53.46
46223;BME280;31943;51.410;7.564;2024-02-23T11:55:35;97989.66;;;9.76;53.72
46223;BME280;31943;51.410;7.564;2024-02-23T11:58:01;97988.19;;;9.64;53.61
46223;BME280;31943;51.410;7.564;2024-02-23T12:00:27;97992.47;;;9.65;53.56
46223;BME280;31943;51.410;7.564;2024-02-23T12:02:52;97982.19;;;9.61;53.90
46223;BME280;31943;51.410;7.564;2024-02-23T12:05:18;97990.88;;;9.60;53.75
46223;BME280;31943;51.410;7.564;2024-02-23T12:07:45;98000.44;;;9.59;53.81
46223;BME280;31943;51.410;7.564;2024-02-23T12:10:11;97996.03;;;9.63;54.22
46223;BME280;31943;51.410;7.564;2024-02-23T12:12:39;97992.69;;;9.56;54.06
46223;BME280;31943;51.410;7.564;2024-02-23T12:15:06;97997.06;;;9.54;54.49
46223;BME280;31943;51.410;7.564;2024-02-23T12:17:35;97999.72;;;9.53;54.28
46223;BME280;31943;51.410;7.564;2024-02-23T12:20:02;97995.38;;;9.53;53.67
46223;BME280;31943;51.410;7.564;2024-02-23T12:22:28;97996.09;;;9.58;53.87
46223;BME280;31943;51.410;7.564;2024-02-23T12:24:58;98001.19;;;9.64;53.88
46223;BME280;31943;51.410;7.564;2024-02-23T12:27:25;97994.94;;;9.72;53.54
46223;BME280;31943;51.410;7.564;2024-02-23T12:29:52;98006.19;;;9.74;53.43
46223;BME280;31943;51.410;7.564;2024-02-23T12:32:20;98001.13;;;9.67;53.19
46223;BME280;31943;51.410;7.564;2024-02-23T12:34:45;98004.31;;;9.80;53.02
46223;BME280;31943;51.410;7.564;2024-02-23T12:37:14;98007.66;;;9.85;52.50
46223;BME280;31943;51.410;7.564;2024-02-23T12:39:40;97996.22;;;9.91;52.52
46223;BME280;31943;51.410;7.564;2024-02-23T12:42:07;97999.59;;;9.96;52.16
46223;BME280;31943;51.410;7.564;2024-02-23T12:44:33;98005.78;;;9.92;51.69
46223;BME280;31943;51.410;7.564;2024-02-23T12:46:58;98003.31;;;9.86;51.32
46223;BME280;31943;51.410;7.564;2024-02-23T12:49:24;97994.75;;;9.81;51.76
46223;BME280;31943;51.410;7.564;2024-02-23T12:51:49;98010.28;;;9.84;51.75
46223;BME280;31943;51.410;7.564;2024-02-23T12:54:15;97999.94;;;9.81;51.10
46223;BME280;31943;51.410;7.564;2024-02-23T12:56:40;98000.75;;;9.84;51.10
46223;BME280;31943;51.410;7.564;2024-02-23T12:59:07;97994.75;;;9.81;51.24
46223;BME280;31943;51.410;7.564;2024-02-23T13:01:33;97992.25;;;9.76;51.26
46223;BME280;31943;51.410;7.564;2024-02-23T13:03:59;97987.94;;;9.74;51.01
46223;BME280;31943;51.410;7.564;2024-02-23T13:06:24;97993.81;;;9.83;51.36
46223;BME280;31943;51.410;7.564;2024-02-23T13:08:50;97997.88;;;9.95;51.26
46223;BME280;31943;51.410;7.564;2024-02-23T13:11:16;97982.34;;;9.90;50.64
46223;BME280;31943;51.410;7.564;2024-02-23T13:13:41;97978.09;;;9.88;50.92
46223;BME280;31943;51.410;7.564;2024-02-23T13:16:10;97995.94;;;10.03;50.80
46223;BME280;31943;51.410;7.564;2024-02-23T13:18:38;97986.97;;;10.15;50.86
46223;BME280;31943;51.410;7.564;2024-02-23T13:21:04;97995.81;;;10.09;50.31
46223;BME280;31943;51.410;7.564;2024-02-23T13:23:29;98017.66;;;10.04;50.69
46223;BME280;31943;51.410;7.564;2024-02-23T13:25:55;97991.06;;;9.89;50.72